createdAt,value
2018-05-14T00:00:45.452Z,19.40
2018-05-14T00:03:13.968Z,22.00
2018-05-14T00:05:42.525Z,20.80
2018-05-14T00:08:11.035Z,24.07
2018-05-14T00:10:39.575Z,21.60
2018-05-14T00:13:08.088Z,21.57
2018-05-14T00:15:36.624Z,21.00
2018-05-14T00:18:05.185Z,19.87
2018-05-14T00:20:34.462Z,23.77
2018-05-14T00:23:02.998Z,21.80
2018-05-14T00:25:31.507Z,26.97
2018-05-14T00:28:00.172Z,22.50
2018-05-14T00:30:28.691Z,22.03
2018-05-14T00:32:57.232Z,27.73
2018-05-14T00:35:25.773Z,24.20
2018-05-14T00:37:54.284Z,25.77
2018-05-14T00:40:22.826Z,28.90
2018-05-14T00:42:51.341Z,29.50
2018-05-14T00:45:20.643Z,26.27
2018-05-14T00:47:49.154Z,25.93
2018-05-14T00:50:17.700Z,28.20
2018-05-14T00:52:47.000Z,25.23
2018-05-14T00:55:17.633Z,25.63
2018-05-14T00:57:46.949Z,24.30
2018-05-14T01:00:15.480Z,24.60
2018-05-14T01:02:44.057Z,28.17
2018-05-14T01:05:12.252Z,26.17
2018-05-14T01:07:40.799Z,22.13
2018-05-14T01:10:09.304Z,26.60
2018-05-14T01:12:37.840Z,27.70
2018-05-14T01:15:06.373Z,35.97
2018-05-14T01:17:34.926Z,33.90
2018-05-14T01:20:03.500Z,30.93
2018-05-14T01:22:32.012Z,32.40
2018-05-14T01:25:03.271Z,27.97
2018-05-14T01:27:31.780Z,30.83
2018-05-14T01:30:01.080Z,27.77
2018-05-14T01:32:30.351Z,25.07
2018-05-14T01:34:58.898Z,31.20
2018-05-14T01:37:27.451Z,34.40
2018-05-14T01:39:55.998Z,33.07
2018-05-14T01:42:24.539Z,35.83
2018-05-14T01:44:53.044Z,29.17
2018-05-14T01:47:21.580Z,31.40
2018-05-14T01:49:50.086Z,33.83
2018-05-14T01:52:18.628Z,31.50
2018-05-14T01:54:47.900Z,27.30
2018-05-14T01:57:16.440Z,29.30
2018-05-14T01:59:44.976Z,32.90
2018-05-14T02:02:13.481Z,27.77
2018-05-14T02:04:42.796Z,31.77
2018-05-14T02:07:11.303Z,34.90
2018-05-14T02:09:39.840Z,33.57
2018-05-14T02:12:09.133Z,36.30
2018-05-14T02:14:38.448Z,32.93
2018-05-14T02:17:07.008Z,40.57
2018-05-14T02:19:35.520Z,36.93
2018-05-14T02:22:04.060Z,34.70
2018-05-14T02:24:32.581Z,40.60
2018-05-14T02:27:01.120Z,31.73
2018-05-14T02:29:29.624Z,36.27
2018-05-14T02:31:58.944Z,29.23
2018-05-14T02:34:28.249Z,37.10
2018-05-14T02:36:56.753Z,36.77
2018-05-14T02:39:25.292Z,39.77
2018-05-14T02:41:54.598Z,43.23
2018-05-14T02:44:23.904Z,46.00
2018-05-14T02:46:53.183Z,41.43
2018-05-14T02:49:21.726Z,44.87
2018-05-14T02:51:50.273Z,42.60
2018-05-14T02:54:18.857Z,46.43
2018-05-14T02:56:48.171Z,46.27
2018-05-14T02:59:16.677Z,47.57
2018-05-14T03:01:45.221Z,46.33
2018-05-14T03:04:14.495Z,47.00
2018-05-14T03:06:43.033Z,51.30
2018-05-14T03:09:11.256Z,46.77
2018-05-14T03:11:39.776Z,53.23
2018-05-14T03:14:08.316Z,45.70
2018-05-14T03:16:36.824Z,49.80
2018-05-14T03:19:05.368Z,51.23
2018-05-14T03:21:33.909Z,50.50
2018-05-14T03:24:02.432Z,50.37
2018-05-14T03:26:30.978Z,52.50
2018-05-14T03:28:59.479Z,54.40
2018-05-14T03:31:28.042Z,51.70
2018-05-14T03:33:56.576Z,46.50
2018-05-14T03:36:25.088Z,48.43
2018-05-14T03:38:53.628Z,46.67
2018-05-14T03:41:22.703Z,44.93
2018-05-14T03:43:51.236Z,43.17
2018-05-14T03:46:20.507Z,49.83
2018-05-14T03:48:49.061Z,45.77
2018-05-14T03:51:17.600Z,48.00
2018-05-14T03:53:46.876Z,42.40
2018-05-14T03:56:15.412Z,47.27
2018-05-14T03:58:55.220Z,46.17
2018-05-14T04:01:35.632Z,48.03
2018-05-14T04:04:15.299Z,45.93
2018-05-14T04:06:43.862Z,47.77
2018-05-14T04:09:12.375Z,46.93
2018-05-14T04:11:40.912Z,50.00
2018-05-14T04:14:09.452Z,47.70
2018-05-14T04:16:38.797Z,43.83
2018-05-14T04:19:08.144Z,43.50
2018-05-14T04:21:36.686Z,44.20
2018-05-14T04:24:05.193Z,46.63
2018-05-14T04:26:33.702Z,45.77
2018-05-14T04:29:03.014Z,44.67
2018-05-14T04:31:32.283Z,42.77
2018-05-14T04:34:00.824Z,43.23
2018-05-14T04:36:29.336Z,44.23
2018-05-14T04:38:57.882Z,43.67
2018-05-14T04:41:26.423Z,41.10
2018-05-14T04:43:54.936Z,44.00
2018-05-14T04:46:23.479Z,50.37
2018-05-14T04:48:51.987Z,40.83
2018-05-14T04:51:21.289Z,41.03
2018-05-14T04:53:50.572Z,41.87
2018-05-14T04:56:19.111Z,35.73
2018-05-14T04:58:47.625Z,42.10
2018-05-14T05:01:16.164Z,39.13
2018-05-14T05:06:57.311Z,31.20
2018-05-14T05:09:25.825Z,36.60
2018-05-14T05:11:54.367Z,43.17
2018-05-14T05:14:22.911Z,37.83
2018-05-14T05:16:51.424Z,39.30
2018-05-14T05:19:19.956Z,38.53
2018-05-14T05:21:48.465Z,34.77
2018-05-14T05:24:17.000Z,31.60
2018-05-14T05:26:46.280Z,33.10
2018-05-14T05:29:14.814Z,28.80
2018-05-14T05:31:43.317Z,33.40
2018-05-14T05:34:11.852Z,34.23
2018-05-14T05:36:41.152Z,39.40
2018-05-14T05:39:10.466Z,34.17
2018-05-14T05:41:39.004Z,31.70
2018-05-14T05:44:07.552Z,32.67
2018-05-14T05:46:36.094Z,30.50
2018-05-14T05:49:05.065Z,31.40
2018-05-14T05:51:33.610Z,31.30
2018-05-14T05:54:02.124Z,33.07
2018-05-14T05:56:30.656Z,37.80
2018-05-14T05:58:59.176Z,31.83
2018-05-14T06:01:27.708Z,30.13
2018-05-14T06:03:56.360Z,29.73
2018-05-14T06:06:24.896Z,31.57
2018-05-14T06:08:53.412Z,31.70
2018-05-14T06:11:22.588Z,27.83
2018-05-14T06:13:51.137Z,32.70
2018-05-14T06:16:20.448Z,26.37
2018-05-14T06:18:48.987Z,24.77
2018-05-14T06:21:17.491Z,26.33
2018-05-14T06:23:46.792Z,24.27
2018-05-14T06:26:16.068Z,27.67
2018-05-14T06:28:44.600Z,24.87
2018-05-14T06:31:13.105Z,25.33
2018-05-14T06:33:41.645Z,22.70
2018-05-14T06:36:10.951Z,24.97
2018-05-14T06:38:40.261Z,24.10
2018-05-14T06:41:08.805Z,23.00
2018-05-14T06:43:37.316Z,22.23
2018-05-14T06:46:06.631Z,23.50
2018-05-14T06:48:35.135Z,23.30
2018-05-14T06:51:03.668Z,22.37
2018-05-14T06:53:32.944Z,20.63
2018-05-14T06:56:01.490Z,19.90
2018-05-14T06:58:30.052Z,17.83
2018-05-14T07:00:58.556Z,16.43
2018-05-14T07:03:27.093Z,17.30
2018-05-14T07:05:56.375Z,19.13
2018-05-14T07:08:24.913Z,17.10
2018-05-14T07:10:53.424Z,16.90
2018-05-14T07:13:22.039Z,15.70
2018-05-14T07:15:51.348Z,17.00
2018-05-14T07:18:20.620Z,15.67
2018-05-14T07:20:49.163Z,14.93
2018-05-14T07:23:17.672Z,15.63
2018-05-14T07:25:46.213Z,14.33
2018-05-14T07:28:14.711Z,14.83
2018-05-14T07:30:43.244Z,14.63
2018-05-14T07:33:12.525Z,14.60
2018-05-14T07:35:41.064Z,14.03
2018-05-14T07:38:09.586Z,14.17
2018-05-14T07:40:38.129Z,13.07
2018-05-14T07:43:06.360Z,14.53
2018-05-14T07:45:34.872Z,12.37
2018-05-14T07:48:03.419Z,13.20
2018-05-14T07:50:31.949Z,14.30
2018-05-14T07:53:00.492Z,16.87
2018-05-14T07:55:29.040Z,13.50
2018-05-14T07:57:57.276Z,11.50
2018-05-14T08:00:26.579Z,16.20
2018-05-14T08:02:55.873Z,13.00
2018-05-14T08:05:25.192Z,12.57
2018-05-14T08:07:53.700Z,11.93
2018-05-14T08:10:22.249Z,12.23
2018-05-14T08:12:50.760Z,12.03
2018-05-14T08:15:19.301Z,12.87
2018-05-14T08:17:48.579Z,12.27
2018-05-14T08:20:17.112Z,12.33
2018-05-14T08:22:45.696Z,11.27
2018-05-14T08:25:14.208Z,12.83
2018-05-14T08:27:42.745Z,12.13
2018-05-14T08:30:11.268Z,11.17
2018-05-14T08:32:39.803Z,11.13
2018-05-14T08:35:08.317Z,11.97
2018-05-14T08:37:36.852Z,14.23
2018-05-14T08:40:06.124Z,11.53
2018-05-14T08:42:34.660Z,11.70
2018-05-14T08:45:03.188Z,11.97
2018-05-14T08:47:31.694Z,13.23
2018-05-14T08:50:00.227Z,11.20
2018-05-14T08:52:28.754Z,12.07
2018-05-14T08:54:57.289Z,11.77
2018-05-14T08:57:25.788Z,10.67
2018-05-14T08:59:54.319Z,10.73
2018-05-14T09:02:23.620Z,11.30
2018-05-14T09:04:52.137Z,10.90
2018-05-14T09:07:20.685Z,11.43
2018-05-14T09:09:50.052Z,13.50
2018-05-14T09:12:18.689Z,12.83
2018-05-14T09:14:47.200Z,11.13
2018-05-14T09:17:15.748Z,11.10
2018-05-14T09:19:44.286Z,10.30
2018-05-14T09:22:12.798Z,11.87
2018-05-14T09:24:42.112Z,12.97
2018-05-14T09:27:10.616Z,13.43
2018-05-14T09:29:39.150Z,17.23
2018-05-14T09:32:08.431Z,13.13
2018-05-14T09:34:36.997Z,15.07
2018-05-14T09:37:05.556Z,14.00
2018-05-14T09:39:34.061Z,13.80
2018-05-14T09:42:02.624Z,13.73
2018-05-14T09:44:31.133Z,14.80
2018-05-14T09:46:59.889Z,15.90
2018-05-14T09:49:28.396Z,12.07
2018-05-14T09:51:56.941Z,12.17
2018-05-14T09:54:25.441Z,9.83
2018-05-14T09:56:54.020Z,11.33
2018-05-14T09:59:22.560Z,13.37
2018-05-14T10:01:51.830Z,9.60
2018-05-14T10:04:20.360Z,11.67
2018-05-14T10:06:48.863Z,10.00
2018-05-14T10:09:17.401Z,12.20
2018-05-14T10:11:46.667Z,8.03
2018-05-14T10:14:15.274Z,12.57
2018-05-14T10:16:43.816Z,13.57
2018-05-14T10:19:12.344Z,10.53
2018-05-14T10:22:00.500Z,11.30
2018-05-14T10:24:29.821Z,11.63
2018-05-14T10:26:58.352Z,10.00
2018-05-14T10:29:26.856Z,9.10
2018-05-14T10:31:55.564Z,8.77
2018-05-14T10:34:24.227Z,11.97
2018-05-14T10:36:52.733Z,7.43
2018-05-14T10:39:21.257Z,8.50
2018-05-14T10:41:49.755Z,8.53
2018-05-14T10:44:18.293Z,8.77
2018-05-14T10:46:48.566Z,8.60
2018-05-14T10:49:17.292Z,9.37
2018-05-14T10:51:45.804Z,8.93
2018-05-14T10:54:15.107Z,8.27
2018-05-14T10:56:43.609Z,8.27
2018-05-14T10:59:12.150Z,7.33
2018-05-14T11:01:40.647Z,8.33
2018-05-14T11:04:09.170Z,8.10
2018-05-14T11:06:37.717Z,8.20
2018-05-14T11:09:05.614Z,12.40
2018-05-14T11:11:34.240Z,7.27
2018-05-14T11:14:02.837Z,9.70
2018-05-14T11:16:31.445Z,7.57
2018-05-14T11:18:59.984Z,7.60
2018-05-14T11:21:28.594Z,5.87
2018-05-14T11:23:57.193Z,7.07
2018-05-14T11:26:25.738Z,9.80
2018-05-14T11:28:54.314Z,6.17
2018-05-14T11:31:23.481Z,5.83
2018-05-14T11:33:52.114Z,7.10
2018-05-14T11:36:20.881Z,9.37
2018-05-14T11:38:49.472Z,7.57
2018-05-14T11:41:18.055Z,8.03
2018-05-14T11:43:46.625Z,5.33
2018-05-14T11:46:16.016Z,6.03
2018-05-14T11:48:44.796Z,4.90
2018-05-14T11:51:14.180Z,8.10
2018-05-14T11:53:42.768Z,4.97
2018-05-14T11:56:11.369Z,7.87
2018-05-14T11:58:40.397Z,6.50
2018-05-14T12:01:08.966Z,6.93
2018-05-14T12:03:37.560Z,6.87
2018-05-14T12:06:06.161Z,10.10
2018-05-14T12:08:34.861Z,5.13
2018-05-14T12:11:03.438Z,7.53
2018-05-14T12:13:32.056Z,6.67
2018-05-14T12:16:00.658Z,4.87
2018-05-14T12:18:29.378Z,6.33
2018-05-14T12:20:57.941Z,5.80
2018-05-14T12:23:26.572Z,5.80
2018-05-14T12:25:55.129Z,6.47
2018-05-14T12:28:23.697Z,7.90
2018-05-14T12:30:52.304Z,6.80
2018-05-14T12:33:20.953Z,4.67
2018-05-14T12:35:49.531Z,6.83
2018-05-14T12:38:18.873Z,4.83
2018-05-14T12:40:47.451Z,5.60
2018-05-14T12:43:16.004Z,5.87
2018-05-14T12:45:45.317Z,6.97
2018-05-14T12:48:13.918Z,5.23
2018-05-14T12:50:42.487Z,6.07
2018-05-14T12:53:11.189Z,6.63
2018-05-14T12:55:39.792Z,5.93
2018-05-14T12:58:08.378Z,8.23
2018-05-14T13:00:36.979Z,6.60
2018-05-14T13:03:05.595Z,12.33
2018-05-14T13:05:34.944Z,9.60
2018-05-14T13:08:03.549Z,4.13
2018-05-14T13:10:32.160Z,5.23
2018-05-14T13:13:01.515Z,7.57
2018-05-14T13:15:30.303Z,4.63
2018-05-14T13:17:59.091Z,4.70
2018-05-14T13:20:27.668Z,5.20
2018-05-14T13:22:57.043Z,4.33
2018-05-14T13:25:25.631Z,8.83
2018-05-14T13:27:54.261Z,8.10
2018-05-14T13:30:22.875Z,6.70
2018-05-14T13:32:52.281Z,4.40
2018-05-14T13:35:21.887Z,7.10
2018-05-14T13:37:51.318Z,5.33
2018-05-14T13:40:20.002Z,4.67
2018-05-14T13:42:48.632Z,9.00
2018-05-14T13:45:17.535Z,7.33
2018-05-14T13:47:46.163Z,7.57
2018-05-14T13:50:14.791Z,4.03
2018-05-14T13:52:43.386Z,8.10
2018-05-14T13:55:12.025Z,5.53
2018-05-14T13:57:40.632Z,7.67
2018-05-14T14:00:09.222Z,5.30
2018-05-14T14:02:37.798Z,9.77
2018-05-14T14:05:06.403Z,7.33
2018-05-14T14:07:35.091Z,4.70
2018-05-14T14:10:03.369Z,5.43
2018-05-14T14:12:31.960Z,4.53
2018-05-14T14:15:01.363Z,5.20
2018-05-14T14:17:30.713Z,5.03
2018-05-14T14:19:59.405Z,6.17
2018-05-14T14:22:27.981Z,10.47
2018-05-14T14:24:56.585Z,5.17
2018-05-14T14:27:25.159Z,5.67
2018-05-14T14:29:53.753Z,6.23
2018-05-14T14:32:22.350Z,9.17
2018-05-14T14:34:50.948Z,4.77
2018-05-14T14:37:19.518Z,4.87
2018-05-14T14:39:48.101Z,7.37
2018-05-14T14:42:16.727Z,6.67
2018-05-14T14:44:45.331Z,5.80
2018-05-14T14:47:13.940Z,5.03
2018-05-14T14:49:42.516Z,5.43
2018-05-14T14:52:11.080Z,5.70
2018-05-14T14:54:39.672Z,7.17
2018-05-14T14:57:08.242Z,7.70
2018-05-14T14:59:36.813Z,6.67
2018-05-14T15:02:05.381Z,5.90
2018-05-14T15:04:34.737Z,9.77
2018-05-14T15:07:03.380Z,6.57
2018-05-14T15:09:32.096Z,5.87
2018-05-14T15:12:01.422Z,5.43
2018-05-14T15:14:29.995Z,5.10
2018-05-14T15:16:59.322Z,5.50
2018-05-14T15:19:27.920Z,6.10
2018-05-14T15:21:57.243Z,7.40
2018-05-14T15:24:25.848Z,7.80
2018-05-14T15:26:54.428Z,7.30
2018-05-14T15:29:23.026Z,7.70
2018-05-14T15:31:51.654Z,7.67
2018-05-14T15:34:21.024Z,8.63
2018-05-14T15:36:49.627Z,16.17
2018-05-14T15:39:18.201Z,6.37
2018-05-14T15:41:46.784Z,6.77
2018-05-14T15:44:15.375Z,4.60
2018-05-14T15:46:44.065Z,5.20
2018-05-14T15:49:12.658Z,11.07
2018-05-14T15:51:42.018Z,4.27
2018-05-14T15:54:10.587Z,7.43
2018-05-14T15:56:39.160Z,5.17
2018-05-14T15:59:07.762Z,5.47
2018-05-14T16:01:36.349Z,5.30
2018-05-14T16:04:04.652Z,8.00
2018-05-14T16:06:33.221Z,5.00
2018-05-14T16:09:02.096Z,7.03
2018-05-14T16:11:30.710Z,3.87
2018-05-14T16:13:59.295Z,5.40
2018-05-14T16:16:27.885Z,7.30
2018-05-14T16:18:56.547Z,8.20
2018-05-14T16:21:26.180Z,9.77
2018-05-14T16:23:54.782Z,4.30
2018-05-14T16:26:24.133Z,6.30
2018-05-14T16:28:52.718Z,9.30
2018-05-14T16:31:21.377Z,5.93
2018-05-14T16:33:50.005Z,9.93
2018-05-14T16:36:24.640Z,6.20
2018-05-14T16:38:53.276Z,6.10
2018-05-14T16:41:23.829Z,11.10
2018-05-14T16:44:12.302Z,7.40
2018-05-14T16:46:53.301Z,11.43
2018-05-14T16:49:26.278Z,12.57
2018-05-14T16:51:55.678Z,10.80
2018-05-14T16:54:25.028Z,5.77
2018-05-14T16:56:53.631Z,4.87
2018-05-14T16:59:25.586Z,5.23
2018-05-14T17:01:54.499Z,10.07
2018-05-14T17:04:23.162Z,6.83
2018-05-14T17:06:51.891Z,8.13
2018-05-14T17:09:25.423Z,11.33
2018-05-14T17:11:54.030Z,5.50
2018-05-14T17:14:23.400Z,7.13
2018-05-14T17:16:51.998Z,5.27
2018-05-14T17:19:20.628Z,6.80
2018-05-14T17:21:49.196Z,3.57
2018-05-14T17:24:17.788Z,9.37
2018-05-14T17:26:46.377Z,7.70
2018-05-14T17:29:15.019Z,6.50
2018-05-14T17:31:43.686Z,5.30
2018-05-14T17:34:12.260Z,5.47
2018-05-14T17:36:40.872Z,5.10
2018-05-14T17:39:09.512Z,6.80
2018-05-14T17:41:42.138Z,6.37
2018-05-14T17:44:10.753Z,5.83
2018-05-14T17:46:39.346Z,6.87
2018-05-14T17:49:07.929Z,4.40
2018-05-14T17:51:36.493Z,5.27
2018-05-14T17:54:05.098Z,3.97
2018-05-14T17:56:33.705Z,3.60
2018-05-14T18:01:56.728Z,6.17
2018-05-14T18:04:25.334Z,8.67
2018-05-14T18:06:53.948Z,9.10
2018-05-14T18:09:23.374Z,6.00
2018-05-14T18:14:52.925Z,8.47
2018-05-14T18:17:21.512Z,5.03
2018-05-14T18:19:55.622Z,9.37
2018-05-14T18:22:25.852Z,7.43
2018-05-14T18:24:59.444Z,8.13
2018-05-14T18:27:31.894Z,4.83
2018-05-14T18:30:05.927Z,7.90
2018-05-14T18:32:34.350Z,8.37
2018-05-14T18:35:08.583Z,6.77
2018-05-14T18:37:37.232Z,6.67
2018-05-14T18:40:05.816Z,5.90
2018-05-14T18:42:34.420Z,6.10
2018-05-14T18:45:03.485Z,5.60
2018-05-14T18:47:32.073Z,6.73
2018-05-14T18:50:00.666Z,7.33
2018-05-14T18:52:29.265Z,5.63
2018-05-14T18:54:58.039Z,5.30
2018-05-14T18:57:26.654Z,5.83
2018-05-14T19:00:09.595Z,3.43
2018-05-14T19:02:39.010Z,10.33
2018-05-14T19:05:07.628Z,6.07
2018-05-14T19:07:36.201Z,6.17
2018-05-14T19:10:04.091Z,4.53
2018-05-14T19:12:32.748Z,8.90
2018-05-14T19:15:06.833Z,9.07
2018-05-14T19:17:40.908Z,5.77
2018-05-14T19:20:09.208Z,6.30
2018-05-14T19:22:44.070Z,6.27
2018-05-14T19:25:12.684Z,4.60
2018-05-14T19:27:41.017Z,6.77
2018-05-14T19:30:09.633Z,7.47
2018-05-14T19:32:38.216Z,4.70
2018-05-14T19:35:12.366Z,5.53
2018-05-14T19:37:41.694Z,5.67
2018-05-14T19:40:15.682Z,8.50
2018-05-14T19:42:45.067Z,3.97
2018-05-14T19:45:13.650Z,7.83
2018-05-14T19:47:42.255Z,3.60
2018-05-14T19:50:11.682Z,5.40
2018-05-14T19:52:40.268Z,3.60
2018-05-14T19:55:08.833Z,3.93
2018-05-14T19:57:37.425Z,5.53
2018-05-14T20:00:05.413Z,8.87
2018-05-14T20:02:34.034Z,8.70
2018-05-14T20:05:03.430Z,6.57
2018-05-14T20:07:31.787Z,6.13
2018-05-14T20:10:00.365Z,4.50
2018-05-14T20:12:28.937Z,7.87
2018-05-14T20:14:57.508Z,6.63
2018-05-14T20:17:26.104Z,7.83
2018-05-14T20:19:54.643Z,10.13
2018-05-14T20:22:23.231Z,6.13
2018-05-14T20:24:51.833Z,8.90
2018-05-14T20:27:21.173Z,4.93
2018-05-14T20:29:49.772Z,5.80
2018-05-14T20:32:18.647Z,5.45
2018-05-14T20:34:47.250Z,5.93
2018-05-14T20:37:15.850Z,4.40
2018-05-14T20:39:45.679Z,7.32
2018-05-14T20:42:15.046Z,7.17
2018-05-14T20:44:43.633Z,6.27
2018-05-14T20:47:12.225Z,4.50
2018-05-14T20:49:40.795Z,4.77
2018-05-14T20:52:09.387Z,4.67
2018-05-14T20:54:38.566Z,5.50
2018-05-14T20:57:07.151Z,6.63
2018-05-14T20:59:35.754Z,8.43
2018-05-14T21:02:04.410Z,7.97
2018-05-14T21:04:33.063Z,6.80
2018-05-14T21:07:01.666Z,3.53
2018-05-14T21:09:30.239Z,6.23
2018-05-14T21:11:58.849Z,5.03
2018-05-14T21:14:27.431Z,7.50
2018-05-14T21:16:55.995Z,8.83
2018-05-14T21:19:24.611Z,7.43
2018-05-14T21:21:53.957Z,4.37
2018-05-14T21:24:23.343Z,5.63
2018-05-14T21:26:52.708Z,8.73
2018-05-14T21:29:21.261Z,6.10
2018-05-14T21:31:49.847Z,6.57
2018-05-14T21:34:18.477Z,8.23
2018-05-14T21:36:47.044Z,6.97
2018-05-14T21:39:15.640Z,5.73
2018-05-14T21:41:44.297Z,4.47
2018-05-14T21:44:12.887Z,5.20
2018-05-14T21:46:41.605Z,8.03
2018-05-14T21:49:10.189Z,6.83
2018-05-14T21:51:38.773Z,7.23
2018-05-14T21:54:07.377Z,6.73
2018-05-14T21:56:36.753Z,6.60
2018-05-14T21:59:05.360Z,7.37
2018-05-14T22:01:33.943Z,8.37
2018-05-14T22:04:03.261Z,5.63
2018-05-14T22:06:32.593Z,6.03
2018-05-14T22:09:01.161Z,4.70
2018-05-14T22:11:29.730Z,4.43
2018-05-14T22:13:58.322Z,5.67
2018-05-14T22:16:26.922Z,6.70
2018-05-14T22:18:55.458Z,4.43
2018-05-14T22:21:24.037Z,4.10
2018-05-14T22:23:52.621Z,6.60
2018-05-14T22:26:21.177Z,7.20
2018-05-14T22:28:49.738Z,5.80
2018-05-14T22:31:18.265Z,7.23
2018-05-14T22:33:46.848Z,4.27
2018-05-14T22:36:15.419Z,5.03
2018-05-14T22:38:43.985Z,7.73
2018-05-14T22:41:12.595Z,9.70
2018-05-14T22:43:41.187Z,6.87
2018-05-14T22:46:09.798Z,7.80
2018-05-14T22:48:38.383Z,5.43
2018-05-14T22:51:06.962Z,6.37
2018-05-14T22:53:35.657Z,7.13
2018-05-14T22:56:04.235Z,6.57
2018-05-14T22:58:32.831Z,5.73
2018-05-14T23:01:01.406Z,4.80
2018-05-14T23:03:29.975Z,5.70
2018-05-14T23:05:59.358Z,5.47
2018-05-14T23:08:28.014Z,6.60
2018-05-14T23:10:56.630Z,6.17
2018-05-14T23:13:25.213Z,5.27
2018-05-14T23:15:53.956Z,4.70
2018-05-14T23:18:22.569Z,6.80
2018-05-14T23:20:51.146Z,5.13
2018-05-14T23:23:19.748Z,6.37
2018-05-14T23:25:48.354Z,10.33
2018-05-14T23:28:17.731Z,6.97
2018-05-14T23:30:46.008Z,4.17
2018-05-14T23:33:14.565Z,6.53
2018-05-14T23:35:43.190Z,4.90
2018-05-14T23:38:12.590Z,9.13
2018-05-14T23:40:41.154Z,4.90
2018-05-14T23:43:09.758Z,6.33
2018-05-14T23:45:39.082Z,10.37
2018-05-14T23:48:07.655Z,5.77
2018-05-14T23:50:36.234Z,7.23
2018-05-14T23:53:04.847Z,5.50
2018-05-14T23:55:33.463Z,7.67
2018-05-14T23:58:02.019Z,4.80
